»·PEaware :: N831T KSFO-KSNA

N831T :: KSFO-KSNA

FLIGHT INFORMATION

Flight Status: Arrived
Operator: Privately registered:
United States
More flights under this callsign
Pilot: Eric C. (19116)
Aircraft: Unknown
(C90)
More flights by this aircraft type
Origin: KSFO San Francisco Intl
United States
Destination: KSNA John Wayne-Orange Co
United States
More flights between these airports :: More routes between these airports
Route: +OFFSH2 FLW TANDY5
File this flight plan on PilotEdge
Remarks:
Altitude:
(Current/Filed)
23,000ft
Speed:
(Current/Filed)
250kts
Departed: 16-Jun-19 05:59 PM
Arrived: 16-Jun-19 08:05 PM
Distance/Time
Traveled:
323nm/2:06
Distance/Time
To Go:
Arrived

Flight Plot

Page will automatically refresh every two minutes.

Flight plan parsing failed; only flown route is shown


Map Options




Map Legend


Flown Route
Filed Route
Departure Airport
Arrival Airport
Navaid (VOR, NDB)
Fix

Horizontal Profiles

Position Reports

Time Latitude Longitude Heading Altitude Ground
Speed
16-Jun-19 17:37 37.627684 -122.384247 294 12ft 0kts
16-Jun-19 17:38 37.627684 -122.384247 294 12ft 0kts
16-Jun-19 17:39 37.627684 -122.384247 294 12ft 0kts
16-Jun-19 17:40 37.627684 -122.384247 294 12ft 0kts
16-Jun-19 17:41 37.627684 -122.384247 294 12ft 0kts
16-Jun-19 17:42 37.627684 -122.384247 294 12ft 0kts
16-Jun-19 17:43 37.627684 -122.384247 294 12ft 0kts
16-Jun-19 17:44 37.627684 -122.384247 294 12ft 0kts
16-Jun-19 17:45 37.627684 -122.384247 294 12ft 0kts
16-Jun-19 17:46 37.627684 -122.384247 294 12ft 0kts
16-Jun-19 17:47 37.627684 -122.384247 294 12ft 0kts
16-Jun-19 17:48 37.627684 -122.384247 294 12ft 0kts
16-Jun-19 17:49 37.627684 -122.384247 294 12ft 0kts
16-Jun-19 17:50 37.627684 -122.384247 294 12ft 0kts
16-Jun-19 17:51 37.627684 -122.384247 294 12ft 0kts
16-Jun-19 17:52 37.627684 -122.384247 294 12ft 0kts
16-Jun-19 17:53 37.627716 -122.384571 254 12ft 7kts
16-Jun-19 17:54 37.625419 -122.381821 114 12ft 20kts
16-Jun-19 17:55 37.622510 -122.375530 184 12ft 4kts
16-Jun-19 17:56 37.622463 -122.375538 192 12ft 0kts
16-Jun-19 17:57 37.621743 -122.376633 291 12ft 0kts
16-Jun-19 17:58 37.633661 -122.406597 294 705ft 133kts
16-Jun-19 17:59 37.651212 -122.448845 296 2260ft 139kts
16-Jun-19 18:00 37.652407 -122.493026 229 3621ft 147kts
16-Jun-19 18:01 37.620889 -122.526979 219 4936ft 151kts
16-Jun-19 18:02 37.586781 -122.559198 217 6492ft 155kts
16-Jun-19 18:03 37.551563 -122.591960 216 7969ft 160kts
16-Jun-19 18:04 37.515422 -122.625515 215 9298ft 163kts
16-Jun-19 18:05 37.478998 -122.659340 214 10472ft 167kts
16-Jun-19 18:06 37.441031 -122.693629 197 11516ft 169kts
16-Jun-19 18:07 37.395333 -122.689145 168 12744ft 152kts
16-Jun-19 18:08 37.355161 -122.678573 168 14041ft 148kts
16-Jun-19 18:09 37.314848 -122.667682 168 15176ft 149kts
16-Jun-19 18:10 37.274099 -122.656638 168 16190ft 151kts
16-Jun-19 18:11 37.232711 -122.645412 169 17093ft 152kts
16-Jun-19 18:12 37.190935 -122.634082 169 17901ft 154kts
16-Jun-19 18:13 37.148918 -122.622670 169 18617ft 155kts
16-Jun-19 18:14 37.106433 -122.611126 170 19269ft 156kts
16-Jun-19 18:15 37.066039 -122.600062 171 20098ft 141kts
16-Jun-19 18:16 37.027628 -122.589619 172 20687ft 140kts
16-Jun-19 18:17 36.989628 -122.579278 173 21218ft 139kts
16-Jun-19 18:18 36.952010 -122.569191 174 21685ft 138kts
16-Jun-19 18:19 36.914201 -122.559369 174 22073ft 139kts
16-Jun-19 18:20 36.877415 -122.549809 175 22444ft 140kts
16-Jun-19 18:21 36.839057 -122.539843 175 22808ft 141kts
16-Jun-19 18:22 36.799377 -122.529647 175 22985ft 158kts
16-Jun-19 18:23 36.754655 -122.512007 143 23000ft 191kts
16-Jun-19 18:24 36.719022 -122.458160 136 22978ft 207kts
16-Jun-19 18:25 36.683741 -122.400022 136 22977ft 212kts
16-Jun-19 18:26 36.647825 -122.340697 136 22973ft 214kts
16-Jun-19 18:27 36.611764 -122.281194 136 22972ft 214kts
16-Jun-19 18:28 36.575715 -122.221831 136 22972ft 214kts
16-Jun-19 18:29 36.539629 -122.162518 136 22972ft 214kts
16-Jun-19 18:30 36.503488 -122.103218 136 22972ft 214kts
16-Jun-19 18:31 36.467342 -122.044013 136 22972ft 214kts
16-Jun-19 18:32 36.431155 -121.984849 136 22963ft 215kts
16-Jun-19 18:33 36.394911 -121.925684 136 22962ft 215kts
16-Jun-19 18:34 36.358556 -121.866453 136 22962ft 215kts
16-Jun-19 18:35 36.322350 -121.807557 136 22962ft 215kts
16-Jun-19 18:36 36.286023 -121.748570 136 22962ft 215kts
16-Jun-19 18:37 36.249603 -121.689533 136 22962ft 215kts
16-Jun-19 18:38 36.213173 -121.630585 136 22959ft 215kts
16-Jun-19 18:39 36.176748 -121.571743 136 22954ft 215kts
16-Jun-19 18:40 36.140316 -121.512991 136 22949ft 215kts
16-Jun-19 18:41 36.103840 -121.454268 136 22945ft 215kts
16-Jun-19 18:42 36.067371 -121.395659 136 22938ft 215kts
16-Jun-19 18:43 36.030821 -121.337027 137 22920ft 215kts
16-Jun-19 18:44 35.994294 -121.278520 137 22898ft 214kts
16-Jun-19 18:45 35.957870 -121.220280 137 22881ft 213kts
16-Jun-19 18:46 35.921590 -121.162373 137 22874ft 213kts
16-Jun-19 18:47 35.886283 -121.106134 137 22883ft 214kts
16-Jun-19 18:48 35.849459 -121.047570 136 22883ft 217kts
16-Jun-19 18:49 35.812171 -120.988353 136 22883ft 220kts
16-Jun-19 18:50 35.774370 -120.928409 136 22883ft 222kts
16-Jun-19 18:52 35.736169 -120.867930 136 22883ft 223kts
16-Jun-19 18:53 35.698091 -120.807764 136 22883ft 223kts
16-Jun-19 18:54 35.659821 -120.747403 136 22883ft 223kts
16-Jun-19 18:55 35.621485 -120.687046 136 22883ft 224kts
16-Jun-19 18:56 35.582835 -120.626301 136 22883ft 224kts
16-Jun-19 18:57 35.544448 -120.566061 136 22883ft 224kts
16-Jun-19 18:58 35.505757 -120.505486 136 22887ft 224kts
16-Jun-19 18:59 35.467212 -120.445212 136 22904ft 223kts
16-Jun-19 19:00 35.428637 -120.385008 136 22922ft 223kts
16-Jun-19 19:01 35.390016 -120.324837 136 22935ft 223kts
16-Jun-19 19:02 35.351452 -120.264852 137 22952ft 222kts
16-Jun-19 19:03 35.312967 -120.205104 137 22958ft 222kts
16-Jun-19 19:04 35.274556 -120.145568 137 22964ft 222kts
16-Jun-19 19:05 35.236084 -120.086039 137 22968ft 222kts
16-Jun-19 19:06 35.197627 -120.026633 137 22970ft 223kts
16-Jun-19 19:07 35.158898 -119.966913 136 22962ft 223kts
16-Jun-19 19:08 35.118927 -119.905378 136 22952ft 223kts
16-Jun-19 19:09 35.076864 -119.848969 146 22946ft 217kts
16-Jun-19 19:10 35.031181 -119.799999 147 22942ft 217kts
16-Jun-19 19:11 34.985142 -119.751152 147 22941ft 218kts
16-Jun-19 19:11 34.947238 -119.711036 146 22930ft 218kts
16-Jun-19 19:13 34.895827 -119.656705 146 22935ft 219kts
16-Jun-19 19:14 34.849431 -119.607756 146 22943ft 221kts
16-Jun-19 19:14 34.810430 -119.566659 146 22941ft 222kts
16-Jun-19 19:15 34.763307 -119.517078 146 22939ft 223kts
16-Jun-19 19:16 34.716308 -119.467711 146 22939ft 223kts
16-Jun-19 19:17 34.669231 -119.418340 146 22939ft 223kts
16-Jun-19 19:18 34.621857 -119.368736 146 22939ft 223kts
16-Jun-19 19:19 34.574095 -119.318802 147 22934ft 223kts
16-Jun-19 19:20 34.526903 -119.269538 147 22934ft 222kts
16-Jun-19 19:21 34.480028 -119.220694 147 22934ft 222kts
16-Jun-19 19:22 34.433785 -119.172573 147 22934ft 222kts
16-Jun-19 19:23 34.387005 -119.123963 146 22934ft 222kts
16-Jun-19 19:24 34.340188 -119.075424 147 22928ft 222kts
16-Jun-19 19:25 34.292841 -119.026378 146 21920ft 222kts
16-Jun-19 19:26 34.246146 -118.978111 145 20911ft 220kts
16-Jun-19 19:27 34.199601 -118.930061 145 19902ft 219kts
16-Jun-19 19:28 34.153412 -118.882435 144 18894ft 218kts
16-Jun-19 19:29 34.107373 -118.835042 143 17889ft 218kts
16-Jun-19 19:30 34.061207 -118.787583 143 16883ft 218kts
16-Jun-19 19:31 34.008830 -118.754446 164 15879ft 213kts
16-Jun-19 19:32 33.952059 -118.733075 165 14871ft 214kts
16-Jun-19 19:33 33.896923 -118.712870 164 14005ft 209kts
16-Jun-19 19:34 33.845198 -118.693942 165 13987ft 182kts
16-Jun-19 19:35 33.798491 -118.676938 165 13989ft 170kts
16-Jun-19 19:36 33.754015 -118.660782 165 13976ft 165kts
16-Jun-19 19:37 33.705492 -118.643660 165 13028ft 196kts
16-Jun-19 19:38 33.669194 -118.602333 93 12070ft 216kts
16-Jun-19 19:39 33.669174 -118.528561 92 11080ft 223kts
16-Jun-19 19:40 33.669026 -118.466384 92 10257ft 225kts
16-Jun-19 19:41 33.668706 -118.390561 92 9261ft 226kts
16-Jun-19 19:42 33.668474 -118.316729 92 8268ft 220kts
16-Jun-19 19:43 33.668299 -118.244210 92 7277ft 218kts
16-Jun-19 19:44 33.667932 -118.171231 92 6276ft 217kts
16-Jun-19 19:45 33.667387 -118.099447 92 5272ft 213kts
16-Jun-19 19:46 33.666794 -118.032115 92 4985ft 186kts
16-Jun-19 19:47 33.666378 -117.973046 92 4988ft 171kts
16-Jun-19 19:48 33.665968 -117.916662 92 4990ft 165kts
16-Jun-19 19:49 33.665488 -117.861386 92 4991ft 166kts
16-Jun-19 19:50 33.664970 -117.805540 85 4991ft 167kts
16-Jun-19 19:51 33.698746 -117.769377 32 5000ft 167kts
16-Jun-19 19:52 33.737524 -117.738129 32 5009ft 167kts
16-Jun-19 19:53 33.775932 -117.706806 32 5020ft 165kts
16-Jun-19 19:54 33.813919 -117.675661 32 5025ft 163kts
16-Jun-19 19:55 33.851677 -117.646000 32 5031ft 161kts
16-Jun-19 19:56 33.888359 -117.645412 283 5041ft 162kts
16-Jun-19 19:57 33.872801 -117.696900 252 4732ft 181kts
16-Jun-19 19:58 33.854614 -117.756832 226 4028ft 191kts
16-Jun-19 19:59 33.806530 -117.786564 205 2892ft 192kts
16-Jun-19 20:00 33.764135 -117.812693 208 1928ft 141kts
16-Jun-19 20:01 33.737330 -117.829775 209 1335ft 102kts
16-Jun-19 20:02 33.717388 -117.842442 209 884ft 96kts
16-Jun-19 20:03 33.692844 -117.858005 209 344ft 99kts
16-Jun-19 20:04 33.678043 -117.868373 290 59ft 0kts
16-Jun-19 20:05 33.678086 -117.868654 260 59ft 7kts
16-Jun-19 20:06 33.675269 -117.870964 298 59ft 4kts
16-Jun-19 20:07 33.675226 -117.871310 210 59ft 0kts

Navigation Log

Ident Type
Flight plan parsing failed, navigation log unavailable